createdAt,value
2019-03-17T00:00:08.832Z,61.50
2019-03-17T00:02:38.423Z,61.80
2019-03-17T00:05:08.021Z,62.30
2019-03-17T00:07:37.661Z,62.80
2019-03-17T00:10:07.475Z,62.50
2019-03-17T00:12:37.476Z,61.80
2019-03-17T00:15:07.485Z,62.40
2019-03-17T00:17:37.089Z,62.30
2019-03-17T00:20:07.131Z,62.50
2019-03-17T00:22:36.767Z,63.20
2019-03-17T00:25:09.739Z,64.00
2019-03-17T00:27:38.015Z,64.30
2019-03-17T00:30:08.407Z,64.30
2019-03-17T00:32:38.034Z,64.40
2019-03-17T00:35:07.710Z,64.40
2019-03-17T00:37:37.339Z,66.10
2019-03-17T00:40:07.015Z,66.40
2019-03-17T00:42:36.625Z,66.10
2019-03-17T00:45:06.756Z,66.00
2019-03-17T00:47:36.357Z,65.50
2019-03-17T00:50:06.163Z,65.30
2019-03-17T00:52:35.806Z,65.40
2019-03-17T00:55:05.862Z,64.70
2019-03-17T00:57:35.507Z,65.00
2019-03-17T01:00:05.606Z,65.20
2019-03-17T01:02:35.350Z,65.50
2019-03-17T01:05:05.342Z,65.90
2019-03-17T01:07:35.061Z,67.90
2019-03-17T01:10:05.157Z,68.20
2019-03-17T01:12:34.738Z,69.30
2019-03-17T01:15:05.202Z,70.10
2019-03-17T01:17:34.878Z,71.10
2019-03-17T01:20:04.712Z,71.80
2019-03-17T01:22:34.431Z,72.30
2019-03-17T01:25:04.270Z,72.40
2019-03-17T01:27:33.870Z,73.10
2019-03-17T01:30:03.527Z,73.70
2019-03-17T01:32:33.205Z,74.70
2019-03-17T01:35:09.113Z,75.40
2019-03-17T01:37:34.283Z,75.60
2019-03-17T01:40:03.964Z,76.20
2019-03-17T01:42:33.583Z,77.30
2019-03-17T01:45:03.232Z,78.00
2019-03-17T01:47:32.861Z,78.90
2019-03-17T01:50:02.489Z,78.70
2019-03-17T01:52:32.114Z,79.10
2019-03-17T01:55:01.799Z,79.50
2019-03-17T01:57:31.433Z,79.70
2019-03-17T02:00:01.074Z,81.00
2019-03-17T02:02:30.666Z,81.30
2019-03-17T02:05:00.390Z,83.30
2019-03-17T02:07:30.019Z,85.40
2019-03-17T02:09:59.610Z,86.40
2019-03-17T02:12:29.232Z,87.60
2019-03-17T02:14:58.934Z,89.30
2019-03-17T02:17:28.855Z,90.80
2019-03-17T02:19:58.616Z,90.90
2019-03-17T02:22:28.234Z,91.30
2019-03-17T02:24:58.150Z,91.90
2019-03-17T02:27:27.975Z,92.60
2019-03-17T02:29:57.621Z,93.80
2019-03-17T02:32:27.276Z,95.80
2019-03-17T02:34:57.206Z,96.90
2019-03-17T02:37:26.863Z,96.80
2019-03-17T02:39:56.492Z,96.70
2019-03-17T02:42:26.102Z,96.70
2019-03-17T02:44:55.843Z,97.00
2019-03-17T02:47:25.442Z,97.00
2019-03-17T02:49:55.203Z,96.90
2019-03-17T02:52:24.852Z,96.70
2019-03-17T02:54:54.472Z,96.50
2019-03-17T02:57:24.091Z,96.00
2019-03-17T02:59:53.707Z,95.30
2019-03-17T03:02:24.829Z,95.40
2019-03-17T03:04:54.450Z,95.30
2019-03-17T03:07:24.131Z,95.30
2019-03-17T03:09:53.826Z,94.20
2019-03-17T03:12:23.532Z,93.90
2019-03-17T03:14:53.362Z,92.60
2019-03-17T03:17:23.101Z,91.90
2019-03-17T03:19:52.694Z,91.50
2019-03-17T03:22:22.430Z,91.50
2019-03-17T03:24:52.160Z,92.60
2019-03-17T03:27:21.799Z,93.60
2019-03-17T03:29:51.551Z,93.60
2019-03-17T03:32:21.297Z,94.40
2019-03-17T03:34:50.912Z,95.20
2019-03-17T03:37:20.570Z,95.70
2019-03-17T03:39:50.199Z,96.10
2019-03-17T03:42:19.800Z,96.70
2019-03-17T03:44:49.554Z,97.00
2019-03-17T03:47:19.148Z,97.50
2019-03-17T03:49:48.760Z,97.80
2019-03-17T03:52:18.487Z,98.70
2019-03-17T03:54:48.100Z,98.80
2019-03-17T03:57:17.701Z,99.20
2019-03-17T03:59:48.248Z,98.20
2019-03-17T04:02:17.848Z,97.90
2019-03-17T04:04:47.588Z,97.50
2019-03-17T04:07:17.264Z,97.20
2019-03-17T04:09:46.877Z,97.20
2019-03-17T04:12:17.794Z,97.40
2019-03-17T04:14:47.563Z,97.70
2019-03-17T04:17:17.228Z,98.70
2019-03-17T04:19:46.831Z,98.60
2019-03-17T04:22:16.576Z,98.40
2019-03-17T04:24:46.222Z,98.10
2019-03-17T04:27:15.873Z,98.20
2019-03-17T04:29:46.719Z,98.70
2019-03-17T04:32:16.934Z,98.90
2019-03-17T04:34:46.634Z,99.20
2019-03-17T04:37:16.387Z,98.70
2019-03-17T04:39:46.004Z,98.10
2019-03-17T04:42:15.655Z,98.10
2019-03-17T04:44:45.354Z,98.00
2019-03-17T04:47:15.045Z,97.90
2019-03-17T04:49:44.663Z,98.60
2019-03-17T04:52:14.429Z,99.80
2019-03-17T04:54:44.062Z,99.10
2019-03-17T04:57:13.706Z,98.60
2019-03-17T04:59:43.359Z,98.40
2019-03-17T05:02:13.723Z,98.70
2019-03-17T05:04:43.503Z,98.30
2019-03-17T05:07:13.183Z,97.50
2019-03-17T05:09:42.805Z,97.30
2019-03-17T05:12:12.421Z,97.00
2019-03-17T05:14:42.062Z,96.60
2019-03-17T05:17:11.650Z,95.70
2019-03-17T05:19:41.272Z,95.60
2019-03-17T05:22:11.026Z,96.50
2019-03-17T05:24:40.704Z,96.80
2019-03-17T05:27:10.428Z,96.60
2019-03-17T05:29:40.193Z,96.20
2019-03-17T05:32:09.891Z,96.00
2019-03-17T05:34:39.542Z,95.90
2019-03-17T05:37:09.199Z,95.50
2019-03-17T05:39:38.831Z,95.20
2019-03-17T05:42:08.458Z,95.30
2019-03-17T05:44:39.502Z,94.90
2019-03-17T05:47:09.169Z,94.50
2019-03-17T05:49:38.776Z,93.90
2019-03-17T05:52:08.472Z,93.50
2019-03-17T05:54:38.079Z,93.50
2019-03-17T05:57:07.714Z,93.10
2019-03-17T05:59:37.338Z,94.20
2019-03-17T06:02:06.956Z,95.10
2019-03-17T06:04:36.554Z,95.60
2019-03-17T06:07:17.726Z,95.70
2019-03-17T06:09:37.480Z,95.40
2019-03-17T06:12:07.175Z,96.10
2019-03-17T06:14:36.872Z,96.80
2019-03-17T06:17:06.425Z,95.80
2019-03-17T06:19:36.183Z,95.60
2019-03-17T06:22:06.117Z,95.70
2019-03-17T06:24:35.757Z,96.10
2019-03-17T06:27:05.565Z,97.00
2019-03-17T06:29:35.257Z,98.70
2019-03-17T06:32:04.905Z,98.70
2019-03-17T06:34:34.517Z,97.20
2019-03-17T06:37:04.150Z,96.10
2019-03-17T06:39:33.754Z,95.00
2019-03-17T06:42:03.519Z,94.30
2019-03-17T06:44:33.229Z,92.80
2019-03-17T06:47:05.771Z,92.30
2019-03-17T06:49:34.252Z,92.80
2019-03-17T06:52:08.680Z,93.80
2019-03-17T06:54:38.440Z,98.50
2019-03-17T06:57:08.043Z,99.00
2019-03-17T06:59:37.679Z,94.70
2019-03-17T07:02:07.829Z,96.40
2019-03-17T07:04:37.397Z,96.80
2019-03-17T07:07:07.095Z,96.10
2019-03-17T07:09:36.703Z,96.80
2019-03-17T07:12:06.344Z,95.90
2019-03-17T07:14:36.085Z,95.20
2019-03-17T07:17:05.906Z,97.10
2019-03-17T07:19:38.285Z,96.40
2019-03-17T07:22:07.923Z,94.90
2019-03-17T07:24:37.555Z,97.90
2019-03-17T07:27:07.544Z,94.50
2019-03-17T07:29:37.344Z,92.60
2019-03-17T07:32:07.114Z,92.70
2019-03-17T07:34:36.755Z,94.00
2019-03-17T07:37:06.638Z,93.00
2019-03-17T07:39:36.405Z,91.40
2019-03-17T07:42:06.272Z,88.30
2019-03-17T07:44:35.982Z,88.60
2019-03-17T07:47:05.762Z,86.10
2019-03-17T07:49:35.370Z,84.60
2019-03-17T07:52:05.167Z,84.20
2019-03-17T07:54:35.271Z,77.50
2019-03-17T07:57:04.971Z,77.20
2019-03-17T07:59:34.699Z,75.10
2019-03-17T08:02:04.375Z,69.30
2019-03-17T08:04:42.501Z,69.50
2019-03-17T08:07:05.428Z,67.00
2019-03-17T08:09:35.110Z,69.40
2019-03-17T08:12:04.844Z,66.80
2019-03-17T08:14:34.530Z,66.90
2019-03-17T08:17:04.159Z,70.30
2019-03-17T08:19:33.849Z,67.80
2019-03-17T08:22:03.539Z,67.10
2019-03-17T08:24:33.291Z,66.20
2019-03-17T08:27:02.936Z,65.90
2019-03-17T08:29:32.627Z,61.80
2019-03-17T08:32:02.340Z,61.40
2019-03-17T08:34:32.094Z,61.70
2019-03-17T08:37:01.786Z,62.00
2019-03-17T08:39:31.515Z,59.70
2019-03-17T08:42:01.223Z,60.00
2019-03-17T08:44:30.921Z,63.10
2019-03-17T08:47:00.605Z,60.80
2019-03-17T08:49:30.249Z,60.10
2019-03-17T08:51:59.895Z,59.30
2019-03-17T08:54:29.598Z,59.40
2019-03-17T08:56:59.357Z,59.10
2019-03-17T08:59:29.048Z,58.60
2019-03-17T09:01:58.731Z,57.90
2019-03-17T09:04:28.431Z,58.20
2019-03-17T09:06:58.100Z,57.20
2019-03-17T09:09:27.743Z,57.00
2019-03-17T09:11:57.391Z,55.20
2019-03-17T09:14:27.201Z,55.50
2019-03-17T09:16:56.847Z,55.80
2019-03-17T09:19:26.493Z,56.50
2019-03-17T09:21:57.304Z,56.00
2019-03-17T09:24:26.913Z,56.10
2019-03-17T09:26:56.554Z,55.70
2019-03-17T09:29:26.219Z,54.30
2019-03-17T09:31:55.853Z,54.20
2019-03-17T09:34:25.506Z,54.10
2019-03-17T09:36:56.122Z,54.90
2019-03-17T09:39:26.176Z,54.10
2019-03-17T09:41:56.173Z,51.40
2019-03-17T09:44:25.813Z,52.50
2019-03-17T09:46:55.489Z,52.90
2019-03-17T09:49:25.124Z,53.30
2019-03-17T09:51:54.775Z,52.50
2019-03-17T09:54:24.524Z,52.40
2019-03-17T09:56:54.186Z,52.80
2019-03-17T09:59:23.940Z,54.40
2019-03-17T10:01:53.693Z,54.00
2019-03-17T10:04:23.346Z,51.60
2019-03-17T10:06:52.998Z,49.10
2019-03-17T10:09:22.669Z,49.90
2019-03-17T10:11:52.308Z,48.50
2019-03-17T10:14:21.954Z,47.90
2019-03-17T10:16:51.629Z,48.20
2019-03-17T10:19:21.226Z,47.60
2019-03-17T10:21:50.880Z,45.50
2019-03-17T10:24:20.493Z,46.20
2019-03-17T10:26:50.136Z,44.70
2019-03-17T10:29:19.945Z,44.20
2019-03-17T10:31:49.615Z,45.50
2019-03-17T10:34:19.234Z,44.80
2019-03-17T10:36:48.981Z,42.80
2019-03-17T10:39:18.616Z,43.90
2019-03-17T10:41:48.312Z,43.00
2019-03-17T10:44:18.015Z,43.60
2019-03-17T10:46:47.635Z,41.30
2019-03-17T10:49:17.315Z,43.00
2019-03-17T10:51:47.000Z,43.60
2019-03-17T10:54:16.625Z,42.60
2019-03-17T10:56:46.256Z,41.60
2019-03-17T10:59:15.938Z,41.70
2019-03-17T11:01:45.587Z,42.40
2019-03-17T11:04:15.199Z,41.90
2019-03-17T11:06:44.864Z,42.80
2019-03-17T11:09:24.639Z,42.20
2019-03-17T11:11:45.813Z,42.00
2019-03-17T11:14:15.510Z,41.60
2019-03-17T11:16:45.205Z,41.80
2019-03-17T11:19:14.926Z,40.90
2019-03-17T11:21:44.689Z,40.60
2019-03-17T11:24:14.386Z,41.40
2019-03-17T11:26:44.147Z,41.90
2019-03-17T11:29:13.885Z,41.40
2019-03-17T11:31:44.508Z,41.50
2019-03-17T11:34:14.235Z,42.40
2019-03-17T11:36:43.961Z,41.40
2019-03-17T11:39:13.691Z,42.10
2019-03-17T11:41:43.433Z,42.90
2019-03-17T11:44:13.207Z,42.00
2019-03-17T11:46:43.039Z,41.30
2019-03-17T11:49:12.744Z,41.60
2019-03-17T11:51:42.500Z,42.40
2019-03-17T11:54:12.195Z,42.50
2019-03-17T11:56:41.907Z,42.50
2019-03-17T11:59:11.634Z,41.90
2019-03-17T12:01:41.353Z,41.80
2019-03-17T12:04:11.036Z,41.40
2019-03-17T12:06:40.709Z,42.90
2019-03-17T12:09:10.444Z,42.50
2019-03-17T12:11:40.116Z,42.70
2019-03-17T12:14:10.056Z,43.00
2019-03-17T12:16:39.813Z,43.20
2019-03-17T12:19:09.460Z,44.10
2019-03-17T12:21:39.184Z,43.50
2019-03-17T12:24:08.999Z,43.90
2019-03-17T12:26:38.735Z,42.90
2019-03-17T12:29:08.517Z,43.50
2019-03-17T12:31:38.233Z,43.10
2019-03-17T12:34:07.934Z,43.30
2019-03-17T12:36:37.730Z,43.00
2019-03-17T12:39:07.969Z,42.40
2019-03-17T12:41:38.400Z,42.90
2019-03-17T12:44:08.352Z,42.30
2019-03-17T12:46:37.972Z,42.10
2019-03-17T12:49:07.667Z,42.40
2019-03-17T12:51:37.438Z,41.90
2019-03-17T12:54:07.101Z,41.50
2019-03-17T12:56:36.750Z,41.80
2019-03-17T12:59:06.402Z,41.80
2019-03-17T13:01:38.284Z,42.20
2019-03-17T13:04:07.916Z,43.50
2019-03-17T13:06:37.554Z,43.10
2019-03-17T13:09:07.952Z,42.90
2019-03-17T13:11:37.592Z,43.50
2019-03-17T13:14:08.273Z,43.60
2019-03-17T13:16:38.223Z,43.70
2019-03-17T13:19:07.937Z,43.60
2019-03-17T13:21:40.167Z,43.30
2019-03-17T13:24:10.852Z,42.70
2019-03-17T13:26:42.520Z,43.50
2019-03-17T13:29:12.195Z,43.40
2019-03-17T13:31:41.826Z,44.20
2019-03-17T13:34:11.506Z,43.90
2019-03-17T13:36:41.165Z,44.00
2019-03-17T13:39:10.933Z,45.30
2019-03-17T13:41:40.528Z,45.10
2019-03-17T13:44:10.222Z,45.00
2019-03-17T13:46:39.883Z,49.70
2019-03-17T13:49:09.481Z,44.40
2019-03-17T13:51:39.092Z,43.60
2019-03-17T13:54:08.955Z,43.20
2019-03-17T13:56:38.604Z,44.30
2019-03-17T13:59:08.308Z,44.30
2019-03-17T14:01:38.248Z,44.60
2019-03-17T14:04:07.913Z,44.40
2019-03-17T14:06:37.747Z,44.30
2019-03-17T14:09:09.047Z,44.40
2019-03-17T14:11:39.705Z,45.70
2019-03-17T14:14:09.360Z,45.80
2019-03-17T14:16:38.981Z,45.00
2019-03-17T14:19:08.613Z,45.50
2019-03-17T14:21:38.460Z,45.50
2019-03-17T14:24:08.245Z,45.70
2019-03-17T14:26:38.010Z,45.20
2019-03-17T14:29:07.959Z,44.70
2019-03-17T14:31:37.587Z,44.90
2019-03-17T14:34:07.389Z,44.40
2019-03-17T14:36:39.270Z,45.50
2019-03-17T14:39:11.148Z,44.20
2019-03-17T14:41:41.016Z,44.60
2019-03-17T14:44:10.693Z,45.40
2019-03-17T14:46:40.309Z,44.20
2019-03-17T14:49:09.944Z,43.50
2019-03-17T14:51:39.564Z,42.90
2019-03-17T14:54:09.230Z,42.40
2019-03-17T14:56:38.877Z,42.70
2019-03-17T14:59:08.557Z,42.40
2019-03-17T15:01:38.169Z,41.20
2019-03-17T15:04:07.841Z,40.80
2019-03-17T15:06:37.510Z,40.50
2019-03-17T15:09:08.466Z,39.40
2019-03-17T15:11:38.188Z,39.40
2019-03-17T15:14:07.918Z,39.30
2019-03-17T15:16:37.550Z,39.90
2019-03-17T15:19:07.146Z,40.20
2019-03-17T15:21:36.872Z,39.20
2019-03-17T15:24:06.464Z,39.20
2019-03-17T15:26:36.084Z,39.40
2019-03-17T15:29:05.896Z,38.50
2019-03-17T15:31:35.623Z,38.00
2019-03-17T15:34:05.260Z,38.10
2019-03-17T15:36:35.010Z,38.50
2019-03-17T15:39:05.394Z,38.70
2019-03-17T15:41:35.374Z,38.40
2019-03-17T15:44:05.114Z,38.30
2019-03-17T15:46:34.839Z,39.40
2019-03-17T15:49:04.483Z,39.40
2019-03-17T15:51:34.199Z,39.70
2019-03-17T15:54:03.864Z,40.90
2019-03-17T15:56:33.616Z,41.70
2019-03-17T15:59:03.382Z,41.20
2019-03-17T16:01:33.058Z,41.00
2019-03-17T16:04:02.701Z,40.80
2019-03-17T16:06:32.438Z,40.80
2019-03-17T16:09:02.072Z,42.40
2019-03-17T16:11:31.730Z,43.60
2019-03-17T16:14:01.378Z,43.90
2019-03-17T16:16:31.037Z,43.80
2019-03-17T16:19:00.650Z,45.60
2019-03-17T16:21:30.283Z,45.60
2019-03-17T16:23:59.907Z,46.70
2019-03-17T16:26:29.534Z,47.00
2019-03-17T16:28:59.193Z,47.20
2019-03-17T16:31:28.849Z,47.10
2019-03-17T16:33:58.596Z,47.20
2019-03-17T16:36:28.249Z,47.50
2019-03-17T16:38:57.878Z,48.10
2019-03-17T16:41:27.499Z,47.80
2019-03-17T16:43:57.195Z,47.90
2019-03-17T16:46:26.782Z,48.50
2019-03-17T16:48:56.542Z,48.70
2019-03-17T16:51:26.244Z,48.50
2019-03-17T16:53:55.860Z,48.80
2019-03-17T16:56:25.496Z,48.60
2019-03-17T16:58:55.197Z,48.80
2019-03-17T17:01:24.820Z,49.10
2019-03-17T17:03:54.469Z,49.10
2019-03-17T17:06:24.165Z,49.40
2019-03-17T17:08:53.793Z,49.50
2019-03-17T17:11:23.466Z,49.70
2019-03-17T17:13:53.266Z,50.10
2019-03-17T17:16:22.921Z,50.40
2019-03-17T17:18:52.552Z,50.30
2019-03-17T17:21:22.208Z,50.30
2019-03-17T17:23:51.851Z,50.40
2019-03-17T17:26:21.485Z,50.60
2019-03-17T17:28:51.250Z,50.80
2019-03-17T17:31:20.890Z,50.80
2019-03-17T17:33:50.538Z,51.00
2019-03-17T17:36:20.334Z,51.00
2019-03-17T17:38:50.007Z,50.70
2019-03-17T17:41:19.650Z,50.90
2019-03-17T17:43:49.429Z,50.90
2019-03-17T17:46:19.111Z,51.30
2019-03-17T17:48:49.148Z,50.50
2019-03-17T17:51:18.882Z,50.60
2019-03-17T17:53:49.991Z,50.30
2019-03-17T17:56:19.607Z,50.30
2019-03-17T17:58:49.218Z,50.50
2019-03-17T18:01:18.867Z,50.50
2019-03-17T18:03:51.887Z,50.90
2019-03-17T18:06:19.819Z,54.90
2019-03-17T18:08:49.482Z,51.70
2019-03-17T18:11:19.132Z,51.10
2019-03-17T18:13:48.771Z,51.00
2019-03-17T18:16:18.380Z,51.10
2019-03-17T18:18:48.027Z,50.80
2019-03-17T18:21:17.673Z,53.10
2019-03-17T18:23:47.288Z,51.60
2019-03-17T18:26:16.998Z,52.10
2019-03-17T18:28:46.678Z,51.40
2019-03-17T18:31:16.347Z,51.50
2019-03-17T18:33:45.949Z,51.30
2019-03-17T18:36:15.637Z,51.90
2019-03-17T18:38:45.375Z,52.20
2019-03-17T18:41:15.048Z,52.00
2019-03-17T18:43:44.711Z,52.00
2019-03-17T18:46:14.418Z,52.20
2019-03-17T18:48:44.123Z,52.00
2019-03-17T18:51:14.262Z,52.00
2019-03-17T18:53:43.908Z,52.00
2019-03-17T18:56:13.551Z,52.30
2019-03-17T18:58:43.231Z,59.80
2019-03-17T19:01:12.877Z,55.00
2019-03-17T19:03:42.579Z,55.50
2019-03-17T19:06:12.254Z,55.00
2019-03-17T19:08:41.997Z,54.10
2019-03-17T19:11:11.646Z,55.20
2019-03-17T19:13:41.338Z,51.70
2019-03-17T19:16:11.006Z,51.50
2019-03-17T19:18:40.608Z,51.40
2019-03-17T19:21:10.292Z,51.20
2019-03-17T19:23:39.907Z,51.10
2019-03-17T19:26:09.537Z,51.50
2019-03-17T19:28:39.142Z,52.00
2019-03-17T19:31:08.795Z,51.80
2019-03-17T19:33:38.483Z,51.80
2019-03-17T19:36:08.189Z,51.80
2019-03-17T19:38:40.045Z,52.10
2019-03-17T19:41:09.722Z,51.90
2019-03-17T19:43:39.402Z,52.10
2019-03-17T19:46:09.075Z,51.40
2019-03-17T19:48:38.703Z,51.30
2019-03-17T19:51:08.357Z,51.60
2019-03-17T19:53:38.004Z,51.70
2019-03-17T19:56:07.671Z,50.90
2019-03-17T19:58:37.366Z,51.20
2019-03-17T20:01:06.968Z,51.80
2019-03-17T20:03:36.639Z,51.90
2019-03-17T20:06:06.295Z,51.80
2019-03-17T20:08:35.905Z,51.30
2019-03-17T20:11:05.697Z,52.20
2019-03-17T20:13:35.334Z,51.90
2019-03-17T20:16:04.962Z,55.10
2019-03-17T20:18:34.567Z,55.10
2019-03-17T20:21:04.226Z,54.40
2019-03-17T20:23:33.902Z,54.80
2019-03-17T20:26:03.494Z,52.10
2019-03-17T20:28:33.186Z,51.00
2019-03-17T20:31:02.767Z,51.10
2019-03-17T20:33:32.368Z,51.30
2019-03-17T20:36:01.982Z,51.10
2019-03-17T20:38:31.625Z,51.80
2019-03-17T20:41:01.250Z,52.00
2019-03-17T20:43:34.719Z,51.70
2019-03-17T20:46:02.200Z,51.40
2019-03-17T20:48:31.828Z,51.80
2019-03-17T20:51:01.555Z,51.70
2019-03-17T20:53:31.178Z,51.80
2019-03-17T20:56:00.799Z,51.40
2019-03-17T20:58:30.519Z,51.70
2019-03-17T21:01:00.269Z,51.80
2019-03-17T21:03:29.933Z,51.40
2019-03-17T21:05:59.624Z,51.50
2019-03-17T21:08:29.239Z,51.50
2019-03-17T21:10:58.914Z,51.40
2019-03-17T21:13:28.571Z,52.00
2019-03-17T21:15:58.219Z,51.60
2019-03-17T21:18:27.822Z,51.70
2019-03-17T21:20:57.847Z,51.70
2019-03-17T21:23:27.466Z,51.80
2019-03-17T21:25:57.191Z,51.90
2019-03-17T21:28:27.831Z,51.70
2019-03-17T21:30:57.538Z,51.90
2019-03-17T21:33:27.245Z,51.70
2019-03-17T21:35:57.012Z,51.90
2019-03-17T21:38:26.610Z,52.50
2019-03-17T21:41:06.543Z,52.50
2019-03-17T21:43:27.661Z,52.10
2019-03-17T21:45:57.311Z,51.80
2019-03-17T21:48:26.950Z,51.80
2019-03-17T21:50:56.718Z,51.90
2019-03-17T21:53:26.480Z,51.90
2019-03-17T21:55:56.218Z,51.90
2019-03-17T21:58:25.862Z,52.00
2019-03-17T22:00:55.606Z,52.50
2019-03-17T22:03:25.542Z,52.70
2019-03-17T22:05:55.210Z,52.60
2019-03-17T22:08:24.990Z,52.70
2019-03-17T22:10:54.624Z,53.10
2019-03-17T22:13:24.385Z,52.50
2019-03-17T22:15:54.121Z,52.80
2019-03-17T22:18:23.764Z,52.90
2019-03-17T22:20:54.434Z,52.90
2019-03-17T22:23:24.035Z,52.80
2019-03-17T22:25:53.809Z,53.20
2019-03-17T22:28:23.536Z,53.50
2019-03-17T22:30:53.158Z,53.00
2019-03-17T22:33:22.837Z,53.20
2019-03-17T22:35:53.041Z,53.60
2019-03-17T22:38:22.973Z,54.00
2019-03-17T22:40:52.643Z,54.40
2019-03-17T22:43:22.311Z,54.50
2019-03-17T22:45:51.942Z,54.60
2019-03-17T22:48:21.607Z,54.50
2019-03-17T22:50:51.627Z,54.30
2019-03-17T22:53:21.394Z,54.20
2019-03-17T22:55:50.948Z,54.20
2019-03-17T22:58:21.698Z,54.70
2019-03-17T23:00:52.189Z,54.70
2019-03-17T23:03:21.835Z,54.40
2019-03-17T23:05:51.619Z,54.60
2019-03-17T23:08:21.248Z,54.90
2019-03-17T23:10:50.961Z,54.80
2019-03-17T23:13:20.695Z,54.80
2019-03-17T23:15:50.296Z,54.60
2019-03-17T23:18:19.914Z,55.30
2019-03-17T23:20:49.538Z,55.70
2019-03-17T23:23:19.125Z,55.60
2019-03-17T23:25:48.778Z,56.40
2019-03-17T23:28:18.431Z,56.40
2019-03-17T23:30:48.049Z,56.40
2019-03-17T23:33:17.664Z,56.70
2019-03-17T23:35:47.294Z,57.00
2019-03-17T23:38:16.910Z,56.90
2019-03-17T23:40:46.514Z,56.70
2019-03-17T23:43:16.178Z,56.50
2019-03-17T23:45:45.822Z,56.50
2019-03-17T23:48:15.539Z,56.60
2019-03-17T23:50:45.170Z,56.60
2019-03-17T23:53:14.791Z,56.90
2019-03-17T23:55:44.390Z,57.40
2019-03-17T23:58:14.041Z,58.20
